sensor_id;sensor_type;location;lat;lon;timestamp;P1;durP1;ratioP1;P2;durP2;ratioP2
73747;SDS011;62056;52.130;5.428;2023-08-12T00:01:17;3.63;;;3.33;;
73747;SDS011;62056;52.130;5.428;2023-08-12T00:03:47;5.40;;;3.53;;
73747;SDS011;62056;52.130;5.428;2023-08-12T00:06:14;5.25;;;3.83;;
73747;SDS011;62056;52.130;5.428;2023-08-12T00:08:41;8.48;;;6.28;;
73747;SDS011;62056;52.130;5.428;2023-08-12T00:11:08;8.20;;;4.60;;
73747;SDS011;62056;52.130;5.428;2023-08-12T00:13:35;6.60;;;3.97;;
73747;SDS011;62056;52.130;5.428;2023-08-12T00:16:01;5.82;;;3.63;;
73747;SDS011;62056;52.130;5.428;2023-08-12T00:18:28;5.75;;;3.13;;
73747;SDS011;62056;52.130;5.428;2023-08-12T00:20:55;5.68;;;3.45;;
73747;SDS011;62056;52.130;5.428;2023-08-12T00:23:22;4.70;;;3.90;;
73747;SDS011;62056;52.130;5.428;2023-08-12T00:25:49;5.63;;;3.50;;
73747;SDS011;62056;52.130;5.428;2023-08-12T00:28:15;4.18;;;2.85;;
73747;SDS011;62056;52.130;5.428;2023-08-12T00:30:42;5.20;;;3.97;;
73747;SDS011;62056;52.130;5.428;2023-08-12T00:33:09;6.60;;;4.30;;
73747;SDS011;62056;52.130;5.428;2023-08-12T00:35:35;5.47;;;4.63;;
73747;SDS011;62056;52.130;5.428;2023-08-12T00:38:02;5.73;;;3.67;;
73747;SDS011;62056;52.130;5.428;2023-08-12T00:40:29;5.15;;;3.50;;
73747;SDS011;62056;52.130;5.428;2023-08-12T00:42:56;6.53;;;4.20;;
73747;SDS011;62056;52.130;5.428;2023-08-12T00:45:22;6.40;;;3.70;;
73747;SDS011;62056;52.130;5.428;2023-08-12T00:47:49;4.20;;;3.10;;
73747;SDS011;62056;52.130;5.428;2023-08-12T00:50:16;10.03;;;4.57;;
73747;SDS011;62056;52.130;5.428;2023-08-12T00:52:42;5.72;;;4.18;;
73747;SDS011;62056;52.130;5.428;2023-08-12T00:55:09;5.55;;;3.80;;
73747;SDS011;62056;52.130;5.428;2023-08-12T00:57:36;8.13;;;3.58;;
73747;SDS011;62056;52.130;5.428;2023-08-12T01:00:03;4.22;;;3.83;;
73747;SDS011;62056;52.130;5.428;2023-08-12T01:02:31;4.23;;;3.80;;
73747;SDS011;62056;52.130;5.428;2023-08-12T01:04:58;5.60;;;4.47;;
73747;SDS011;62056;52.130;5.428;2023-08-12T01:07:25;5.65;;;4.65;;
73747;SDS011;62056;52.130;5.428;2023-08-12T01:09:52;5.07;;;4.32;;
73747;SDS011;62056;52.130;5.428;2023-08-12T01:12:24;8.55;;;4.57;;
73747;SDS011;62056;52.130;5.428;2023-08-12T01:17:34;5.03;;;4.43;;
73747;SDS011;62056;52.130;5.428;2023-08-12T01:20:05;6.97;;;4.63;;
73747;SDS011;62056;52.130;5.428;2023-08-12T01:22:39;8.20;;;7.03;;
73747;SDS011;62056;52.130;5.428;2023-08-12T01:25:07;7.63;;;6.78;;
73747;SDS011;62056;52.130;5.428;2023-08-12T01:27:36;8.07;;;5.13;;
73747;SDS011;62056;52.130;5.428;2023-08-12T01:30:04;12.20;;;5.93;;
73747;SDS011;62056;52.130;5.428;2023-08-12T01:32:43;6.85;;;6.25;;
73747;SDS011;62056;52.130;5.428;2023-08-12T01:35:28;10.13;;;5.90;;
73747;SDS011;62056;52.130;5.428;2023-08-12T01:37:59;7.95;;;5.20;;
73747;SDS011;62056;52.130;5.428;2023-08-12T01:40:28;10.37;;;6.00;;
73747;SDS011;62056;52.130;5.428;2023-08-12T01:42:57;6.25;;;5.53;;
73747;SDS011;62056;52.130;5.428;2023-08-12T01:45:25;6.38;;;5.78;;
73747;SDS011;62056;52.130;5.428;2023-08-12T01:47:52;6.80;;;5.50;;
73747;SDS011;62056;52.130;5.428;2023-08-12T01:50:19;10.27;;;5.50;;
73747;SDS011;62056;52.130;5.428;2023-08-12T01:52:47;7.20;;;4.90;;
73747;SDS011;62056;52.130;5.428;2023-08-12T01:55:14;10.82;;;5.78;;
73747;SDS011;62056;52.130;5.428;2023-08-12T01:57:41;6.20;;;5.60;;
73747;SDS011;62056;52.130;5.428;2023-08-12T02:00:08;7.65;;;5.20;;
73747;SDS011;62056;52.130;5.428;2023-08-12T02:02:35;9.10;;;5.45;;
73747;SDS011;62056;52.130;5.428;2023-08-12T02:05:02;11.17;;;5.60;;
73747;SDS011;62056;52.130;5.428;2023-08-12T02:07:29;11.88;;;5.85;;
73747;SDS011;62056;52.130;5.428;2023-08-12T02:09:56;8.68;;;5.85;;
73747;SDS011;62056;52.130;5.428;2023-08-12T02:12:23;6.50;;;5.03;;
73747;SDS011;62056;52.130;5.428;2023-08-12T02:14:49;11.80;;;5.95;;
73747;SDS011;62056;52.130;5.428;2023-08-12T02:17:16;4.90;;;4.40;;
73747;SDS011;62056;52.130;5.428;2023-08-12T02:19:43;8.30;;;6.25;;
73747;SDS011;62056;52.130;5.428;2023-08-12T02:22:11;7.75;;;5.78;;
73747;SDS011;62056;52.130;5.428;2023-08-12T02:24:38;6.30;;;5.70;;
73747;SDS011;62056;52.130;5.428;2023-08-12T02:27:04;7.93;;;6.65;;
73747;SDS011;62056;52.130;5.428;2023-08-12T02:29:31;9.07;;;6.20;;
73747;SDS011;62056;52.130;5.428;2023-08-12T02:31:58;10.07;;;6.43;;
73747;SDS011;62056;52.130;5.428;2023-08-12T02:34:25;11.70;;;6.22;;
73747;SDS011;62056;52.130;5.428;2023-08-12T02:36:51;8.45;;;6.22;;
73747;SDS011;62056;52.130;5.428;2023-08-12T02:39:18;8.38;;;6.03;;
73747;SDS011;62056;52.130;5.428;2023-08-12T02:41:45;7.17;;;6.50;;
73747;SDS011;62056;52.130;5.428;2023-08-12T02:44:12;8.48;;;6.43;;
73747;SDS011;62056;52.130;5.428;2023-08-12T02:46:39;7.18;;;6.47;;
73747;SDS011;62056;52.130;5.428;2023-08-12T02:49:05;13.65;;;7.10;;
73747;SDS011;62056;52.130;5.428;2023-08-12T02:51:32;9.73;;;6.68;;
73747;SDS011;62056;52.130;5.428;2023-08-12T02:53:59;10.30;;;6.60;;
73747;SDS011;62056;52.130;5.428;2023-08-12T02:56:26;9.73;;;6.68;;
73747;SDS011;62056;52.130;5.428;2023-08-12T02:58:52;12.40;;;6.95;;
73747;SDS011;62056;52.130;5.428;2023-08-12T03:01:20;8.45;;;6.93;;
73747;SDS011;62056;52.130;5.428;2023-08-12T03:03:47;12.25;;;8.50;;
73747;SDS011;62056;52.130;5.428;2023-08-12T03:06:14;8.57;;;6.83;;
73747;SDS011;62056;52.130;5.428;2023-08-12T03:08:41;13.65;;;7.30;;
73747;SDS011;62056;52.130;5.428;2023-08-12T03:11:08;8.80;;;6.85;;
73747;SDS011;62056;52.130;5.428;2023-08-12T03:13:34;10.27;;;5.60;;
73747;SDS011;62056;52.130;5.428;2023-08-12T03:16:01;9.80;;;7.45;;
73747;SDS011;62056;52.130;5.428;2023-08-12T03:18:28;10.93;;;7.53;;
73747;SDS011;62056;52.130;5.428;2023-08-12T03:20:55;10.63;;;6.38;;
73747;SDS011;62056;52.130;5.428;2023-08-12T03:23:21;9.40;;;7.60;;
73747;SDS011;62056;52.130;5.428;2023-08-12T03:25:48;8.27;;;7.22;;
73747;SDS011;62056;52.130;5.428;2023-08-12T03:28:16;7.45;;;6.63;;
73747;SDS011;62056;52.130;5.428;2023-08-12T03:30:49;14.77;;;7.77;;
73747;SDS011;62056;52.130;5.428;2023-08-12T03:33:17;10.13;;;6.95;;
73747;SDS011;62056;52.130;5.428;2023-08-12T03:35:47;7.47;;;6.78;;
73747;SDS011;62056;52.130;5.428;2023-08-12T03:38:14;8.35;;;7.07;;
73747;SDS011;62056;52.130;5.428;2023-08-12T03:40:42;10.75;;;6.57;;
73747;SDS011;62056;52.130;5.428;2023-08-12T03:43:09;10.87;;;7.03;;
73747;SDS011;62056;52.130;5.428;2023-08-12T03:45:44;13.63;;;7.28;;
73747;SDS011;62056;52.130;5.428;2023-08-12T03:48:11;9.40;;;7.20;;
73747;SDS011;62056;52.130;5.428;2023-08-12T03:50:38;10.63;;;6.68;;
73747;SDS011;62056;52.130;5.428;2023-08-12T03:53:06;9.10;;;7.50;;
73747;SDS011;62056;52.130;5.428;2023-08-12T03:55:33;12.37;;;7.23;;
73747;SDS011;62056;52.130;5.428;2023-08-12T03:58:00;8.02;;;7.00;;
73747;SDS011;62056;52.130;5.428;2023-08-12T04:00:27;8.95;;;7.95;;
73747;SDS011;62056;52.130;5.428;2023-08-12T04:02:54;8.13;;;7.35;;
73747;SDS011;62056;52.130;5.428;2023-08-12T04:05:21;11.80;;;7.75;;
73747;SDS011;62056;52.130;5.428;2023-08-12T04:07:47;11.63;;;7.07;;
73747;SDS011;62056;52.130;5.428;2023-08-12T04:10:14;12.13;;;7.60;;
73747;SDS011;62056;52.130;5.428;2023-08-12T04:12:41;15.48;;;7.85;;
73747;SDS011;62056;52.130;5.428;2023-08-12T04:15:08;8.23;;;6.75;;
73747;SDS011;62056;52.130;5.428;2023-08-12T04:17:37;14.82;;;7.82;;
73747;SDS011;62056;52.130;5.428;2023-08-12T04:20:07;10.90;;;9.13;;
73747;SDS011;62056;52.130;5.428;2023-08-12T04:22:34;9.63;;;7.15;;
73747;SDS011;62056;52.130;5.428;2023-08-12T04:25:01;12.70;;;7.53;;
73747;SDS011;62056;52.130;5.428;2023-08-12T04:27:29;8.30;;;6.85;;
73747;SDS011;62056;52.130;5.428;2023-08-12T04:29:55;11.05;;;7.78;;
73747;SDS011;62056;52.130;5.428;2023-08-12T04:32:22;15.43;;;9.23;;
73747;SDS011;62056;52.130;5.428;2023-08-12T04:34:49;11.52;;;8.98;;
73747;SDS011;62056;52.130;5.428;2023-08-12T04:37:15;14.35;;;8.45;;
73747;SDS011;62056;52.130;5.428;2023-08-12T04:39:42;13.88;;;9.50;;
73747;SDS011;62056;52.130;5.428;2023-08-12T04:42:09;11.68;;;7.75;;
73747;SDS011;62056;52.130;5.428;2023-08-12T04:44:35;12.47;;;9.03;;
73747;SDS011;62056;52.130;5.428;2023-08-12T04:47:02;13.43;;;8.70;;
73747;SDS011;62056;52.130;5.428;2023-08-12T04:49:29;10.98;;;8.93;;
73747;SDS011;62056;52.130;5.428;2023-08-12T04:51:57;13.80;;;8.98;;
73747;SDS011;62056;52.130;5.428;2023-08-12T04:54:24;10.82;;;7.88;;
73747;SDS011;62056;52.130;5.428;2023-08-12T04:56:51;11.33;;;9.33;;
73747;SDS011;62056;52.130;5.428;2023-08-12T04:59:18;9.18;;;8.23;;
73747;SDS011;62056;52.130;5.428;2023-08-12T05:01:44;10.27;;;9.18;;
73747;SDS011;62056;52.130;5.428;2023-08-12T05:04:29;9.63;;;8.73;;
73747;SDS011;62056;52.130;5.428;2023-08-12T05:06:55;12.95;;;10.05;;
73747;SDS011;62056;52.130;5.428;2023-08-12T05:09:22;16.53;;;10.13;;
73747;SDS011;62056;52.130;5.428;2023-08-12T05:11:49;15.60;;;13.10;;
73747;SDS011;62056;52.130;5.428;2023-08-12T05:14:16;12.70;;;9.07;;
73747;SDS011;62056;52.130;5.428;2023-08-12T05:16:42;12.50;;;9.77;;
73747;SDS011;62056;52.130;5.428;2023-08-12T05:19:09;8.77;;;6.88;;
73747;SDS011;62056;52.130;5.428;2023-08-12T05:21:36;13.37;;;10.77;;
73747;SDS011;62056;52.130;5.428;2023-08-12T05:24:02;9.57;;;8.60;;
73747;SDS011;62056;52.130;5.428;2023-08-12T05:26:29;9.02;;;6.63;;
73747;SDS011;62056;52.130;5.428;2023-08-12T05:28:56;14.27;;;8.30;;
73747;SDS011;62056;52.130;5.428;2023-08-12T05:31:22;10.07;;;7.50;;
73747;SDS011;62056;52.130;5.428;2023-08-12T05:33:49;9.83;;;7.37;;
73747;SDS011;62056;52.130;5.428;2023-08-12T05:36:17;13.88;;;7.90;;
73747;SDS011;62056;52.130;5.428;2023-08-12T05:38:44;8.88;;;7.47;;
73747;SDS011;62056;52.130;5.428;2023-08-12T05:41:11;8.90;;;8.00;;
73747;SDS011;62056;52.130;5.428;2023-08-12T05:43:38;7.72;;;7.07;;
73747;SDS011;62056;52.130;5.428;2023-08-12T05:46:05;11.53;;;8.37;;
73747;SDS011;62056;52.130;5.428;2023-08-12T05:48:32;8.63;;;7.22;;
73747;SDS011;62056;52.130;5.428;2023-08-12T05:50:58;11.23;;;7.50;;
73747;SDS011;62056;52.130;5.428;2023-08-12T05:53:25;11.68;;;8.15;;
73747;SDS011;62056;52.130;5.428;2023-08-12T05:55:52;9.38;;;7.80;;
73747;SDS011;62056;52.130;5.428;2023-08-12T05:58:19;10.03;;;7.60;;
73747;SDS011;62056;52.130;5.428;2023-08-12T06:00:46;16.88;;;10.40;;
73747;SDS011;62056;52.130;5.428;2023-08-12T06:03:13;10.65;;;7.28;;
73747;SDS011;62056;52.130;5.428;2023-08-12T06:05:40;12.90;;;8.55;;
73747;SDS011;62056;52.130;5.428;2023-08-12T06:08:07;10.15;;;8.10;;
73747;SDS011;62056;52.130;5.428;2023-08-12T06:10:34;8.90;;;7.93;;
73747;SDS011;62056;52.130;5.428;2023-08-12T06:13:04;9.43;;;6.95;;
73747;SDS011;62056;52.130;5.428;2023-08-12T06:15:32;13.55;;;7.88;;
73747;SDS011;62056;52.130;5.428;2023-08-12T06:17:59;9.93;;;8.45;;
73747;SDS011;62056;52.130;5.428;2023-08-12T06:20:27;10.10;;;7.97;;
73747;SDS011;62056;52.130;5.428;2023-08-12T06:22:54;11.40;;;9.23;;
73747;SDS011;62056;52.130;5.428;2023-08-12T06:25:21;9.63;;;7.55;;
73747;SDS011;62056;52.130;5.428;2023-08-12T06:27:47;9.52;;;7.15;;
73747;SDS011;62056;52.130;5.428;2023-08-12T06:30:14;6.65;;;5.93;;
73747;SDS011;62056;52.130;5.428;2023-08-12T06:32:41;7.70;;;5.60;;
73747;SDS011;62056;52.130;5.428;2023-08-12T06:35:07;8.10;;;6.00;;
73747;SDS011;62056;52.130;5.428;2023-08-12T06:37:34;7.70;;;6.50;;
73747;SDS011;62056;52.130;5.428;2023-08-12T06:40:01;10.23;;;6.80;;
73747;SDS011;62056;52.130;5.428;2023-08-12T06:42:30;6.18;;;5.68;;
73747;SDS011;62056;52.130;5.428;2023-08-12T06:44:57;6.07;;;5.40;;
73747;SDS011;62056;52.130;5.428;2023-08-12T06:47:25;8.33;;;4.73;;
73747;SDS011;62056;52.130;5.428;2023-08-12T06:49:54;5.68;;;5.00;;
73747;SDS011;62056;52.130;5.428;2023-08-12T06:52:21;5.30;;;4.47;;
73747;SDS011;62056;52.130;5.428;2023-08-12T06:54:49;4.50;;;4.10;;
73747;SDS011;62056;52.130;5.428;2023-08-12T06:57:16;4.15;;;3.75;;
73747;SDS011;62056;52.130;5.428;2023-08-12T06:59:42;4.63;;;4.10;;
73747;SDS011;62056;52.130;5.428;2023-08-12T07:02:09;4.55;;;3.85;;
73747;SDS011;62056;52.130;5.428;2023-08-12T07:04:37;4.05;;;3.65;;
73747;SDS011;62056;52.130;5.428;2023-08-12T07:07:04;4.22;;;3.83;;
73747;SDS011;62056;52.130;5.428;2023-08-12T07:09:30;3.78;;;3.35;;
73747;SDS011;62056;52.130;5.428;2023-08-12T07:11:57;3.90;;;3.60;;
73747;SDS011;62056;52.130;5.428;2023-08-12T07:14:24;3.25;;;3.05;;
73747;SDS011;62056;52.130;5.428;2023-08-12T07:16:51;3.45;;;3.20;;
73747;SDS011;62056;52.130;5.428;2023-08-12T07:19:18;3.13;;;2.92;;
73747;SDS011;62056;52.130;5.428;2023-08-12T07:21:45;3.33;;;3.10;;
73747;SDS011;62056;52.130;5.428;2023-08-12T07:24:12;4.13;;;2.83;;
73747;SDS011;62056;52.130;5.428;2023-08-12T07:26:39;3.58;;;3.25;;
73747;SDS011;62056;52.130;5.428;2023-08-12T07:29:05;3.50;;;3.20;;
73747;SDS011;62056;52.130;5.428;2023-08-12T07:31:33;3.72;;;3.42;;
73747;SDS011;62056;52.130;5.428;2023-08-12T07:33:59;2.97;;;2.67;;
73747;SDS011;62056;52.130;5.428;2023-08-12T07:36:26;3.27;;;3.03;;
73747;SDS011;62056;52.130;5.428;2023-08-12T07:38:53;3.40;;;3.17;;
73747;SDS011;62056;52.130;5.428;2023-08-12T07:41:20;2.78;;;2.33;;
73747;SDS011;62056;52.130;5.428;2023-08-12T07:43:47;2.47;;;2.00;;
73747;SDS011;62056;52.130;5.428;2023-08-12T07:46:14;2.65;;;2.17;;
73747;SDS011;62056;52.130;5.428;2023-08-12T07:48:40;2.17;;;1.97;;
73747;SDS011;62056;52.130;5.428;2023-08-12T07:51:07;2.60;;;2.40;;
73747;SDS011;62056;52.130;5.428;2023-08-12T07:53:34;2.55;;;2.35;;
73747;SDS011;62056;52.130;5.428;2023-08-12T07:56:00;4.15;;;2.92;;
73747;SDS011;62056;52.130;5.428;2023-08-12T07:58:27;2.85;;;2.22;;
73747;SDS011;62056;52.130;5.428;2023-08-12T08:00:54;2.40;;;2.20;;
73747;SDS011;62056;52.130;5.428;2023-08-12T08:03:21;2.30;;;2.10;;
73747;SDS011;62056;52.130;5.428;2023-08-12T08:05:48;3.45;;;2.42;;
73747;SDS011;62056;52.130;5.428;2023-08-12T08:08:14;2.65;;;2.28;;
73747;SDS011;62056;52.130;5.428;2023-08-12T08:10:41;3.85;;;2.63;;
73747;SDS011;62056;52.130;5.428;2023-08-12T08:13:08;2.30;;;2.10;;
73747;SDS011;62056;52.130;5.428;2023-08-12T08:15:34;1.73;;;1.60;;
73747;SDS011;62056;52.130;5.428;2023-08-12T08:18:02;1.98;;;1.77;;
73747;SDS011;62056;52.130;5.428;2023-08-12T08:20:33;2.60;;;2.13;;
73747;SDS011;62056;52.130;5.428;2023-08-12T08:23:00;2.08;;;1.88;;
73747;SDS011;62056;52.130;5.428;2023-08-12T08:25:27;1.47;;;1.37;;
73747;SDS011;62056;52.130;5.428;2023-08-12T08:27:54;1.98;;;1.80;;
73747;SDS011;62056;52.130;5.428;2023-08-12T08:30:21;2.33;;;1.75;;
73747;SDS011;62056;52.130;5.428;2023-08-12T08:32:49;1.35;;;1.25;;
73747;SDS011;62056;52.130;5.428;2023-08-12T08:35:16;1.60;;;1.50;;
73747;SDS011;62056;52.130;5.428;2023-08-12T08:37:43;1.70;;;1.60;;
73747;SDS011;62056;52.130;5.428;2023-08-12T08:40:10;1.25;;;1.10;;
73747;SDS011;62056;52.130;5.428;2023-08-12T08:42:37;1.50;;;1.38;;
73747;SDS011;62056;52.130;5.428;2023-08-12T08:45:05;1.77;;;1.38;;
73747;SDS011;62056;52.130;5.428;2023-08-12T08:47:38;1.58;;;1.15;;
73747;SDS011;62056;52.130;5.428;2023-08-12T08:50:08;2.13;;;1.30;;
73747;SDS011;62056;52.130;5.428;2023-08-12T08:52:35;1.63;;;1.33;;
73747;SDS011;62056;52.130;5.428;2023-08-12T08:55:04;2.05;;;1.10;;
73747;SDS011;62056;52.130;5.428;2023-08-12T08:57:33;1.10;;;0.60;;
73747;SDS011;62056;52.130;5.428;2023-08-12T09:00:03;0.80;;;0.70;;
73747;SDS011;62056;52.130;5.428;2023-08-12T09:02:48;1.07;;;0.73;;
73747;SDS011;62056;52.130;5.428;2023-08-12T09:05:17;0.88;;;0.50;;
73747;SDS011;62056;52.130;5.428;2023-08-12T09:07:45;0.80;;;0.60;;
73747;SDS011;62056;52.130;5.428;2023-08-12T09:10:12;0.88;;;0.60;;
73747;SDS011;62056;52.130;5.428;2023-08-12T09:12:41;0.88;;;0.50;;
73747;SDS011;62056;52.130;5.428;2023-08-12T09:15:09;1.97;;;0.70;;
73747;SDS011;62056;52.130;5.428;2023-08-12T09:17:36;2.08;;;0.50;;
73747;SDS011;62056;52.130;5.428;2023-08-12T09:20:04;1.77;;;0.73;;
73747;SDS011;62056;52.130;5.428;2023-08-12T09:22:43;1.63;;;0.52;;
73747;SDS011;62056;52.130;5.428;2023-08-12T09:25:10;1.48;;;0.80;;
73747;SDS011;62056;52.130;5.428;2023-08-12T09:27:37;2.60;;;0.83;;
73747;SDS011;62056;52.130;5.428;2023-08-12T09:30:04;4.15;;;0.65;;
73747;SDS011;62056;52.130;5.428;2023-08-12T09:32:32;2.03;;;0.88;;
73747;SDS011;62056;52.130;5.428;2023-08-12T09:35:01;2.47;;;1.65;;
73747;SDS011;62056;52.130;5.428;2023-08-12T09:37:32;1.35;;;0.85;;
73747;SDS011;62056;52.130;5.428;2023-08-12T09:39:59;2.23;;;0.70;;
73747;SDS011;62056;52.130;5.428;2023-08-12T09:42:31;2.00;;;0.95;;
73747;SDS011;62056;52.130;5.428;2023-08-12T09:44:59;3.97;;;0.95;;
73747;SDS011;62056;52.130;5.428;2023-08-12T09:47:27;2.65;;;1.05;;
73747;SDS011;62056;52.130;5.428;2023-08-12T09:49:54;1.83;;;0.98;;
73747;SDS011;62056;52.130;5.428;2023-08-12T09:52:21;2.43;;;1.13;;
73747;SDS011;62056;52.130;5.428;2023-08-12T09:54:48;1.55;;;0.70;;
73747;SDS011;62056;52.130;5.428;2023-08-12T09:57:19;4.82;;;0.82;;
73747;SDS011;62056;52.130;5.428;2023-08-12T09:59:50;5.00;;;1.08;;
73747;SDS011;62056;52.130;5.428;2023-08-12T10:02:20;3.17;;;0.80;;
73747;SDS011;62056;52.130;5.428;2023-08-12T10:04:47;2.73;;;0.87;;
73747;SDS011;62056;52.130;5.428;2023-08-12T10:07:18;2.20;;;0.80;;
73747;SDS011;62056;52.130;5.428;2023-08-12T10:09:46;2.88;;;1.20;;
73747;SDS011;62056;52.130;5.428;2023-08-12T10:12:13;4.43;;;1.25;;
73747;SDS011;62056;52.130;5.428;2023-08-12T10:14:44;1.90;;;0.70;;
73747;SDS011;62056;52.130;5.428;2023-08-12T10:17:13;2.37;;;1.20;;
73747;SDS011;62056;52.130;5.428;2023-08-12T10:19:55;4.65;;;0.90;;
73747;SDS011;62056;52.130;5.428;2023-08-12T10:22:24;1.98;;;0.90;;
73747;SDS011;62056;52.130;5.428;2023-08-12T10:24:52;4.32;;;1.00;;
73747;SDS011;62056;52.130;5.428;2023-08-12T10:27:19;2.03;;;1.27;;
73747;SDS011;62056;52.130;5.428;2023-08-12T10:29:46;4.60;;;1.30;;
73747;SDS011;62056;52.130;5.428;2023-08-12T10:32:15;2.63;;;1.10;;
73747;SDS011;62056;52.130;5.428;2023-08-12T10:34:42;2.50;;;0.80;;
73747;SDS011;62056;52.130;5.428;2023-08-12T10:37:09;5.30;;;1.23;;
73747;SDS011;62056;52.130;5.428;2023-08-12T10:39:41;4.63;;;1.42;;
73747;SDS011;62056;52.130;5.428;2023-08-12T10:42:09;3.87;;;1.00;;
73747;SDS011;62056;52.130;5.428;2023-08-12T10:44:43;2.70;;;1.17;;
73747;SDS011;62056;52.130;5.428;2023-08-12T10:47:17;2.35;;;0.70;;
73747;SDS011;62056;52.130;5.428;2023-08-12T10:49:48;2.67;;;1.10;;
73747;SDS011;62056;52.130;5.428;2023-08-12T10:52:25;2.70;;;1.20;;
73747;SDS011;62056;52.130;5.428;2023-08-12T10:55:17;2.97;;;1.03;;
73747;SDS011;62056;52.130;5.428;2023-08-12T10:57:53;1.70;;;0.95;;
73747;SDS011;62056;52.130;5.428;2023-08-12T11:02:51;2.35;;;1.42;;
73747;SDS011;62056;52.130;5.428;2023-08-12T11:05:19;6.18;;;1.63;;
73747;SDS011;62056;52.130;5.428;2023-08-12T11:08:00;3.27;;;1.00;;
73747;SDS011;62056;52.130;5.428;2023-08-12T11:10:30;2.88;;;1.05;;
73747;SDS011;62056;52.130;5.428;2023-08-12T11:13:00;4.07;;;1.35;;
73747;SDS011;62056;52.130;5.428;2023-08-12T11:15:45;2.10;;;1.50;;
73747;SDS011;62056;52.130;5.428;2023-08-12T11:18:14;3.78;;;1.50;;
73747;SDS011;62056;52.130;5.428;2023-08-12T11:20:45;5.37;;;1.47;;
73747;SDS011;62056;52.130;5.428;2023-08-12T11:23:14;5.40;;;1.33;;
73747;SDS011;62056;52.130;5.428;2023-08-12T11:25:42;3.00;;;1.10;;
73747;SDS011;62056;52.130;5.428;2023-08-12T11:28:11;4.75;;;1.17;;
73747;SDS011;62056;52.130;5.428;2023-08-12T11:30:39;6.72;;;1.30;;
73747;SDS011;62056;52.130;5.428;2023-08-12T11:33:08;2.70;;;1.03;;
73747;SDS011;62056;52.130;5.428;2023-08-12T11:35:36;3.22;;;1.20;;
73747;SDS011;62056;52.130;5.428;2023-08-12T11:38:04;3.25;;;1.30;;
73747;SDS011;62056;52.130;5.428;2023-08-12T11:40:31;3.78;;;1.30;;
73747;SDS011;62056;52.130;5.428;2023-08-12T11:42:58;4.05;;;1.20;;
73747;SDS011;62056;52.130;5.428;2023-08-12T11:45:25;5.87;;;1.30;;
73747;SDS011;62056;52.130;5.428;2023-08-12T11:47:53;4.22;;;1.50;;
73747;SDS011;62056;52.130;5.428;2023-08-12T11:50:22;3.63;;;1.05;;
73747;SDS011;62056;52.130;5.428;2023-08-12T11:52:51;3.53;;;1.23;;
73747;SDS011;62056;52.130;5.428;2023-08-12T11:55:19;4.28;;;1.35;;
73747;SDS011;62056;52.130;5.428;2023-08-12T11:57:46;3.57;;;1.20;;
73747;SDS011;62056;52.130;5.428;2023-08-12T12:00:15;4.03;;;1.42;;
73747;SDS011;62056;52.130;5.428;2023-08-12T12:02:50;7.25;;;1.27;;
73747;SDS011;62056;52.130;5.428;2023-08-12T12:05:21;5.80;;;1.40;;
73747;SDS011;62056;52.130;5.428;2023-08-12T12:07:52;4.95;;;1.45;;
73747;SDS011;62056;52.130;5.428;2023-08-12T12:13:00;4.07;;;1.45;;
73747;SDS011;62056;52.130;5.428;2023-08-12T12:15:30;3.83;;;1.75;;
73747;SDS011;62056;52.130;5.428;2023-08-12T12:18:08;4.20;;;1.52;;
73747;SDS011;62056;52.130;5.428;2023-08-12T12:20:42;5.57;;;1.08;;
73747;SDS011;62056;52.130;5.428;2023-08-12T12:23:27;5.27;;;1.87;;
73747;SDS011;62056;52.130;5.428;2023-08-12T12:26:02;3.55;;;1.52;;
73747;SDS011;62056;52.130;5.428;2023-08-12T12:28:29;2.75;;;1.20;;
73747;SDS011;62056;52.130;5.428;2023-08-12T12:30:56;2.67;;;1.10;;
73747;SDS011;62056;52.130;5.428;2023-08-12T12:33:24;1.80;;;1.00;;
73747;SDS011;62056;52.130;5.428;2023-08-12T12:35:51;3.97;;;1.00;;
73747;SDS011;62056;52.130;5.428;2023-08-12T12:38:24;2.22;;;1.02;;
73747;SDS011;62056;52.130;5.428;2023-08-12T12:40:54;2.90;;;1.42;;
73747;SDS011;62056;52.130;5.428;2023-08-12T12:43:21;4.30;;;1.33;;
73747;SDS011;62056;52.130;5.428;2023-08-12T12:45:48;4.55;;;1.40;;
73747;SDS011;62056;52.130;5.428;2023-08-12T12:48:15;6.23;;;1.67;;
73747;SDS011;62056;52.130;5.428;2023-08-12T12:50:41;7.13;;;1.83;;
73747;SDS011;62056;52.130;5.428;2023-08-12T12:53:08;4.30;;;2.03;;
73747;SDS011;62056;52.130;5.428;2023-08-12T12:55:35;2.45;;;1.20;;
73747;SDS011;62056;52.130;5.428;2023-08-12T12:58:02;4.88;;;1.38;;
73747;SDS011;62056;52.130;5.428;2023-08-12T13:00:28;4.07;;;1.43;;
73747;SDS011;62056;52.130;5.428;2023-08-12T13:02:55;4.03;;;1.40;;
73747;SDS011;62056;52.130;5.428;2023-08-12T13:05:22;5.95;;;1.40;;
73747;SDS011;62056;52.130;5.428;2023-08-12T13:07:49;5.55;;;1.50;;
73747;SDS011;62056;52.130;5.428;2023-08-12T13:10:16;4.75;;;1.52;;
73747;SDS011;62056;52.130;5.428;2023-08-12T13:12:43;5.03;;;1.43;;
73747;SDS011;62056;52.130;5.428;2023-08-12T13:15:10;2.63;;;1.50;;
73747;SDS011;62056;52.130;5.428;2023-08-12T13:17:36;4.60;;;1.50;;
73747;SDS011;62056;52.130;5.428;2023-08-12T13:20:03;4.38;;;1.92;;
73747;SDS011;62056;52.130;5.428;2023-08-12T13:22:31;4.38;;;1.67;;
73747;SDS011;62056;52.130;5.428;2023-08-12T13:24:58;6.10;;;1.80;;
73747;SDS011;62056;52.130;5.428;2023-08-12T13:27:25;4.63;;;1.65;;
73747;SDS011;62056;52.130;5.428;2023-08-12T13:29:54;3.42;;;1.58;;
73747;SDS011;62056;52.130;5.428;2023-08-12T13:32:22;5.05;;;1.65;;
73747;SDS011;62056;52.130;5.428;2023-08-12T13:34:49;6.05;;;2.08;;
73747;SDS011;62056;52.130;5.428;2023-08-12T13:37:15;4.37;;;2.93;;
73747;SDS011;62056;52.130;5.428;2023-08-12T13:39:42;4.95;;;1.67;;
73747;SDS011;62056;52.130;5.428;2023-08-12T13:42:09;3.92;;;1.50;;
73747;SDS011;62056;52.130;5.428;2023-08-12T13:44:36;6.60;;;1.92;;
73747;SDS011;62056;52.130;5.428;2023-08-12T13:47:03;2.70;;;1.40;;
73747;SDS011;62056;52.130;5.428;2023-08-12T13:49:31;3.47;;;1.40;;
73747;SDS011;62056;52.130;5.428;2023-08-12T13:51:58;4.00;;;2.40;;
73747;SDS011;62056;52.130;5.428;2023-08-12T13:54:26;4.68;;;2.33;;
73747;SDS011;62056;52.130;5.428;2023-08-12T13:56:52;2.70;;;1.48;;
73747;SDS011;62056;52.130;5.428;2023-08-12T13:59:19;3.80;;;1.73;;
73747;SDS011;62056;52.130;5.428;2023-08-12T14:01:46;5.57;;;1.77;;
73747;SDS011;62056;52.130;5.428;2023-08-12T14:04:13;5.70;;;2.05;;
73747;SDS011;62056;52.130;5.428;2023-08-12T14:06:39;3.75;;;2.05;;
73747;SDS011;62056;52.130;5.428;2023-08-12T14:09:06;3.63;;;2.10;;
73747;SDS011;62056;52.130;5.428;2023-08-12T14:11:38;3.75;;;1.50;;
73747;SDS011;62056;52.130;5.428;2023-08-12T14:14:05;4.47;;;1.60;;
73747;SDS011;62056;52.130;5.428;2023-08-12T14:16:32;6.57;;;1.60;;
73747;SDS011;62056;52.130;5.428;2023-08-12T14:18:59;5.93;;;1.98;;
73747;SDS011;62056;52.130;5.428;2023-08-12T14:21:26;3.75;;;1.70;;
73747;SDS011;62056;52.130;5.428;2023-08-12T14:23:53;4.03;;;1.60;;
73747;SDS011;62056;52.130;5.428;2023-08-12T14:26:21;6.93;;;1.43;;
73747;SDS011;62056;52.130;5.428;2023-08-12T14:28:47;5.32;;;1.50;;
73747;SDS011;62056;52.130;5.428;2023-08-12T14:31:14;3.75;;;1.67;;
73747;SDS011;62056;52.130;5.428;2023-08-12T14:33:41;5.28;;;1.65;;
73747;SDS011;62056;52.130;5.428;2023-08-12T14:36:08;11.70;;;3.28;;
73747;SDS011;62056;52.130;5.428;2023-08-12T14:38:37;5.63;;;1.57;;
73747;SDS011;62056;52.130;5.428;2023-08-12T14:41:04;7.25;;;2.38;;
73747;SDS011;62056;52.130;5.428;2023-08-12T14:43:30;6.43;;;2.17;;
73747;SDS011;62056;52.130;5.428;2023-08-12T14:45:57;7.22;;;1.80;;
73747;SDS011;62056;52.130;5.428;2023-08-12T14:48:24;5.82;;;1.80;;
73747;SDS011;62056;52.130;5.428;2023-08-12T14:50:51;4.70;;;1.70;;
73747;SDS011;62056;52.130;5.428;2023-08-12T14:53:20;6.50;;;1.65;;
73747;SDS011;62056;52.130;5.428;2023-08-12T14:55:47;7.32;;;1.90;;
73747;SDS011;62056;52.130;5.428;2023-08-12T14:58:14;5.30;;;1.90;;